Terminal Aerodrome Forecast
Issued by NWS Grand Junction, CO

Home | Current Version | Previous Version | Text Only | Print | Product List | Glossary On
Versions: 1 2 3 4 5 6 7 8 9 10 11 12 13 14 15 16 17 18 19 20 21 22 23 24 25 26 27 28 29 30 31 32 33 34 35 36 37 38
000
FTUS45 KGJT 051125
TAFGJT
TAF
KGJT 051125Z 0512/0612 29004KT P6SM -RA OVC110
     FM051300 30005KT P6SM VCSH OVC120
     FM051500 14008KT P6SM SCT040 OVC100
     FM051900 23010KT P6SM OVC100
     FM052100 24010KT P6SM VCTS SCT050CB OVC100
     FM060000 22012KT P6SM BKN100
     FM060600 10008KT P6SM SCT150=

USA.gov is the U.S. government's official web portal to all federal, state and local government web resources and services.